Time;durP1;ratioP1;P1;durP2;ratioP2;P2;SDS_P1;SDS_P2;PMS_P1;PMS_P2;Temp;Humidity;BMP_temperature;BMP_pressure;BME280_temperature;BME280_humidity;BME280_pressure;Samples;Min_cycle;Max_cycle;Signal;HPM_P1;HPM_P2
2023/03/03 00:00:40;;;;;;;45.45;18.73;;;;;;;1.29;100.00;98979.22;4936598;28;20587;-74
2023/03/03 00:03:08;;;;;;;51.03;20.73;;;;;;;1.34;100.00;98992.13;4946412;29;20031;-74
2023/03/03 00:05:34;;;;;;;49.80;20.27;;;;;;;1.37;100.00;98999.84;4946837;28;20129;-74
2023/03/03 00:08:00;;;;;;;50.13;20.05;;;;;;;1.00;100.00;98978.38;4944388;28;20470;-74
2023/03/03 00:10:26;;;;;;;57.00;20.73;;;;;;;0.65;100.00;98980.53;4940116;29;20042;-74
2023/03/03 00:12:52;;;;;;;51.53;20.63;;;;;;;0.43;100.00;98980.75;4934271;29;20031;-74
2023/03/03 00:15:20;;;;;;;47.00;19.77;;;;;;;0.28;100.00;98987.41;4935757;28;20126;-72
2023/03/03 00:17:46;;;;;;;53.00;21.23;;;;;;;0.24;100.00;98999.25;4942480;28;21758;-71
2023/03/03 00:20:34;;;;;;;55.03;19.05;;;;;;;0.36;100.00;99006.19;4942410;29;20016;-74
2023/03/03 00:23:14;;;;;;;50.35;19.60;;;;;;;0.26;100.00;99015.94;4940248;28;20171;-73
2023/03/03 00:25:43;;;;;;;55.10;20.45;;;;;;;0.16;100.00;99006.13;4947647;28;20046;-72
2023/03/03 00:28:23;;;;;;;53.13;19.95;;;;;;;0.25;100.00;99004.47;4945470;28;20055;-72
2023/03/03 00:30:49;;;;;;;51.10;20.33;;;;;;;0.39;100.00;99014.78;4951367;28;20035;-72
2023/03/03 00:33:31;;;;;;;62.13;21.67;;;;;;;0.39;100.00;98997.94;4944906;28;20400;-72
2023/03/03 00:36:05;;;;;;;45.28;18.70;;;;;;;0.58;100.00;99021.16;4943475;28;20023;-72
2023/03/03 00:38:34;;;;;;;52.45;20.08;;;;;;;0.64;100.00;99010.78;4944284;28;20031;-74
2023/03/03 00:41:00;;;;;;;55.92;21.60;;;;;;;0.61;100.00;98991.59;4944402;28;20043;-72
2023/03/03 00:43:34;;;;;;;50.35;20.73;;;;;;;0.64;100.00;98991.31;4945812;28;20118;-72
2023/03/03 00:45:59;;;;;;;44.28;19.35;;;;;;;0.36;100.00;98961.78;4946485;28;20399;-74
2023/03/03 00:48:26;;;;;;;42.15;18.20;;;;;;;0.58;100.00;99008.69;4950903;28;20035;-74
2023/03/03 00:50:53;;;;;;;49.25;19.58;;;;;;;0.53;100.00;99008.25;4952075;28;20034;-74
2023/03/03 00:53:22;;;;;;;50.63;19.90;;;;;;;0.35;100.00;99004.53;4947361;28;20035;-74
2023/03/03 00:55:49;;;;;;;46.75;19.25;;;;;;;0.36;100.00;99006.19;4943509;28;20035;-72
2023/03/03 00:58:15;;;;;;;47.22;20.33;;;;;;;0.32;100.00;99010.13;4944101;29;20038;-74
2023/03/03 01:00:41;;;;;;;46.65;19.77;;;;;;;0.37;100.00;99013.22;4946493;29;20472;-74
2023/03/03 01:03:08;;;;;;;51.03;19.20;;;;;;;0.32;100.00;99015.44;4949168;29;20023;-74
2023/03/03 01:05:34;;;;;;;46.53;19.50;;;;;;;0.19;100.00;98995.19;4954277;28;21487;-72
2023/03/03 01:08:00;;;;;;;49.75;20.15;;;;;;;0.24;100.00;99018.75;4941919;28;20480;-72
2023/03/03 01:10:29;;;;;;;47.17;19.02;;;;;;;0.20;100.00;99017.31;4936773;29;20030;-74
2023/03/03 01:12:54;;;;;;;48.47;19.93;;;;;;;0.14;100.00;99000.06;4950548;28;20034;-72
2023/03/03 01:15:20;;;;;;;53.85;19.35;;;;;;;0.11;100.00;98997.69;4947939;28;20031;-72
2023/03/03 01:17:45;;;;;;;40.83;17.50;;;;;;;-0.02;100.00;98989.06;4951974;28;20401;-72
2023/03/03 01:20:13;;;;;;;44.70;17.52;;;;;;;-0.03;100.00;99009.53;5000953;28;20023;-72
2023/03/03 01:22:39;;;;;;;40.05;17.08;;;;;;;-0.23;100.00;99003.22;4933125;28;20027;-72
2023/03/03 01:25:05;;;;;;;42.13;17.92;;;;;;;-0.32;100.00;98998.66;4950624;28;20039;-72
2023/03/03 01:27:30;;;;;;;41.53;17.13;;;;;;;-0.34;100.00;99002.44;4942048;28;20038;-72
2023/03/03 01:29:56;;;;;;;47.88;17.98;;;;;;;-0.48;100.00;98988.50;4941909;29;20385;-73
2023/03/03 01:32:23;;;;;;;51.92;18.13;;;;;;;-0.44;100.00;99013.00;4939171;29;20035;-73
2023/03/03 01:34:48;;;;;;;46.15;18.15;;;;;;;-0.58;100.00;98994.69;4955973;28;20490;-73
2023/03/03 01:37:13;;;;;;;44.42;18.30;;;;;;;-0.69;100.00;98992.94;4983590;28;20028;-73
2023/03/03 01:39:39;;;;;;;43.63;17.67;;;;;;;-0.63;100.00;98996.91;4948374;28;20035;-73
2023/03/03 01:42:04;;;;;;;41.97;18.23;;;;;;;-0.65;100.00;98991.72;4940594;28;20113;-73
2023/03/03 01:44:29;;;;;;;42.40;16.75;;;;;;;-0.76;100.00;98997.94;4943400;28;20486;-72
2023/03/03 01:47:21;;;;;;;49.00;19.52;;;;;;;-0.83;100.00;98999.41;4952073;28;20035;-73
2023/03/03 01:50:11;;;;;;;41.35;16.50;;;;;;;-0.89;100.00;98992.78;4935764;29;20031;-73
2023/03/03 01:52:43;;;;;;;38.72;16.75;;;;;;;-1.04;100.00;98983.41;4940724;29;20081;-73
2023/03/03 01:55:21;;;;;;;49.65;19.17;;;;;;;-0.87;100.00;99000.63;4941196;29;20038;-73
2023/03/03 01:57:55;;;;;;;45.40;18.20;;;;;;;-0.95;100.00;98995.09;4937964;29;20115;-73
2023/03/03 02:00:20;;;;;;;44.58;17.65;;;;;;;-1.13;100.00;98981.50;4939618;29;20027;-73
2023/03/03 02:02:46;;;;;;;48.35;18.13;;;;;;;-1.27;100.00;98968.53;4936003;28;20509;-73
2023/03/03 02:05:13;;;;;;;44.58;19.35;;;;;;;-1.22;100.00;98985.75;4942296;28;20019;-73
2023/03/03 02:07:38;;;;;;;48.42;19.70;;;;;;;-1.09;100.00;98990.06;4950229;29;20030;-73
2023/03/03 02:10:14;;;;;;;42.58;18.63;;;;;;;-1.01;100.00;99000.91;4939270;29;20020;-73
2023/03/03 02:12:51;;;;;;;44.40;18.13;;;;;;;-1.04;100.00;98990.53;4941817;28;20028;-73
2023/03/03 02:15:31;;;;;;;41.53;18.25;;;;;;;-1.02;100.00;98981.50;4944581;28;20054;-73
2023/03/03 02:17:57;;;;;;;;;;;;;;;-1.02;100.00;98993.91;4948867;28;20048;-73
2023/03/03 02:20:43;;;;;;;43.70;16.67;;;;;;;-1.22;100.00;98964.53;4977634;28;19918;-73
2023/03/03 02:23:20;;;;;;;42.92;17.65;;;;;;;-1.14;100.00;98996.59;4949905;28;20393;-73
2023/03/03 02:25:56;;;;;;;43.75;17.45;;;;;;;-1.17;100.00;98996.00;4953781;28;20080;-73
2023/03/03 02:28:27;;;;;;;48.00;18.13;;;;;;;-1.10;100.00;99010.47;4945518;29;20468;-73
2023/03/03 02:30:54;;;;;;;41.85;16.73;;;;;;;-1.16;100.00;99006.47;4935375;29;20023;-73
2023/03/03 02:33:19;;;;;;;43.70;17.30;;;;;;;-1.36;100.00;98986.03;4947367;28;20647;-73
2023/03/03 02:35:44;;;;;;;44.45;17.90;;;;;;;-1.45;100.00;98994.72;4947507;28;20131;-73
2023/03/03 02:38:31;;;;;;;51.97;17.83;;;;;;;-1.47;100.00;98997.47;4951888;28;20033;-73
2023/03/03 02:41:06;;;;;;;47.83;18.02;;;;;;;-1.54;100.00;99001.63;4950777;28;20031;-73
2023/03/03 02:43:49;;;;;;;48.08;18.38;;;;;;;-1.48;100.00;99001.13;4944518;28;20028;-74
2023/03/03 02:46:14;;;;;;;47.47;18.17;;;;;;;-1.49;100.00;98999.44;4954415;28;20019;-73
2023/03/03 02:48:40;;;;;;;48.40;18.30;;;;;;;-1.60;100.00;99002.94;4945160;28;20028;-73
2023/03/03 02:51:05;;;;;;;51.35;18.30;;;;;;;-1.82;100.00;98989.69;4951947;28;20042;-73
2023/03/03 02:53:30;;;;;;;45.35;17.23;;;;;;;-1.73;100.00;98994.25;4954084;28;20061;-73
2023/03/03 02:55:56;;;;;;;44.17;18.95;;;;;;;-1.73;100.00;98990.75;4951227;28;20031;-73
2023/03/03 02:58:21;;;;;;;44.70;18.67;;;;;;;-1.59;100.00;99001.13;4947401;29;20103;-73
2023/03/03 03:00:46;;;;;;;45.83;18.75;;;;;;;-1.69;100.00;99005.47;4942443;28;20031;-73
2023/03/03 03:03:12;;;;;;;50.70;19.35;;;;;;;-1.83;100.00;98998.59;4945860;28;20069;-73
2023/03/03 03:05:38;;;;;;;50.00;19.15;;;;;;;-1.88;100.00;98987.53;4938732;29;20039;-73
2023/03/03 03:08:03;;;;;;;50.58;18.55;;;;;;;-1.87;100.00;98997.16;4942517;29;20028;-73
2023/03/03 03:10:28;;;;;;;51.55;19.27;;;;;;;-1.76;100.00;99015.72;4934822;28;20081;-74
2023/03/03 03:12:54;;;;;;;49.92;18.92;;;;;;;-1.84;100.00;98996.91;4951824;28;20034;-73
2023/03/03 03:15:20;;;;;;;40.50;17.15;;;;;;;-1.68;100.00;99020.41;4948992;28;20031;-73
2023/03/03 03:17:45;;;;;;;50.40;19.10;;;;;;;-1.64;100.00;99006.78;4940494;28;20375;-73
2023/03/03 03:20:11;;;;;;;43.72;17.45;;;;;;;-1.67;100.00;99004.38;4945190;28;20077;-74
2023/03/03 03:22:36;;;;;;;46.90;17.38;;;;;;;-1.67;100.00;99011.50;4946092;28;20066;-74
2023/03/03 03:25:01;;;;;;;49.25;18.08;;;;;;;-1.77;100.00;98990.16;4939039;28;20093;-72
2023/03/03 03:27:27;;;;;;;43.50;17.70;;;;;;;-1.67;100.00;99006.22;4942780;28;20481;-71
2023/03/03 03:29:52;;;;;;;39.67;16.60;;;;;;;-1.67;100.00;99012.34;4940236;29;20079;-74
2023/03/03 03:32:17;;;;;;;47.40;16.30;;;;;;;-1.68;100.00;99012.44;4933113;29;20036;-74
2023/03/03 03:34:42;;;;;;;39.17;17.58;;;;;;;-1.71;100.00;99007.41;4947793;28;20031;-74
2023/03/03 03:37:08;;;;;;;45.88;17.25;;;;;;;-1.77;100.00;99003.44;4949858;29;20020;-73
2023/03/03 03:39:34;;;;;;;45.90;17.25;;;;;;;-1.71;100.00;99016.19;4945624;28;20050;-73
2023/03/03 03:41:59;;;;;;;40.67;17.23;;;;;;;-1.79;100.00;99003.53;4943683;28;20481;-74
2023/03/03 03:44:24;;;;;;;46.63;17.48;;;;;;;-1.58;100.00;99014.25;4947467;28;20493;-74
2023/03/03 03:46:50;;;;;;;41.90;16.95;;;;;;;-1.47;100.00;99012.56;4948786;28;20035;-73
2023/03/03 03:49:15;;;;;;;43.65;17.20;;;;;;;-1.61;100.00;99000.41;4940292;29;20497;-73
2023/03/03 03:51:40;;;;;;;52.08;18.30;;;;;;;-1.68;100.00;98983.28;4962936;28;20027;-74
2023/03/03 03:54:06;;;;;;;46.85;17.85;;;;;;;-1.50;100.00;99011.00;4944351;28;20023;-74
2023/03/03 03:56:32;;;;;;;51.72;17.95;;;;;;;-1.45;100.00;99008.00;4941361;28;20049;-74
2023/03/03 03:58:57;;;;;;;41.95;18.30;;;;;;;-1.56;100.00;98988.47;4942344;28;20062;-74
2023/03/03 04:01:22;;;;;;;42.60;18.02;;;;;;;-1.56;100.00;98977.00;4942759;28;20034;-73
2023/03/03 04:03:48;;;;;;;49.20;18.77;;;;;;;-1.37;100.00;99001.09;4948247;28;20031;-74
2023/03/03 04:06:13;;;;;;;42.67;17.35;;;;;;;-1.32;100.00;99003.38;4946595;28;20024;-74
2023/03/03 04:08:39;;;;;;;41.10;17.23;;;;;;;-1.17;100.00;99012.78;4943904;28;20023;-74
2023/03/03 04:11:04;;;;;;;43.38;17.90;;;;;;;-1.00;100.00;99016.69;4941572;28;20038;-71
2023/03/03 04:13:30;;;;;;;50.03;18.70;;;;;;;-0.90;100.00;99014.16;4949978;28;20035;-72
2023/03/03 04:15:56;;;;;;;45.33;17.38;;;;;;;-0.58;100.00;99015.97;4956669;28;20063;-72
2023/03/03 04:18:21;;;;;;;43.97;18.15;;;;;;;-0.61;100.00;99011.75;4963288;28;20063;-72
2023/03/03 04:20:46;;;;;;;39.55;17.20;;;;;;;-0.62;100.00;99003.91;4937297;28;20032;-72
2023/03/03 04:23:13;;;;;;;42.85;17.13;;;;;;;-0.77;100.00;98995.41;4940710;28;20028;-72
2023/03/03 04:25:41;;;;;;;46.58;16.83;;;;;;;-0.63;100.00;99020.81;4943674;29;20027;-78
2023/03/03 04:28:07;;;;;;;35.97;16.23;;;;;;;-0.44;100.00;98999.72;4966790;28;20416;-79
2023/03/03 04:30:36;;;;;;;42.70;17.48;;;;;;;-0.31;100.00;99004.84;4957072;29;20118;-78
2023/03/03 04:40:20;;;;;;;34.47;15.30;;;;;;;-0.06;100.00;99017.72;4983987;28;20101;-77
2023/03/03 04:42:46;;;;;;;42.65;16.90;;;;;;;-0.88;100.00;98920.09;4964458;28;20035;-78
2023/03/03 04:45:12;;;;;;;49.30;17.83;;;;;;;-1.09;100.00;98910.44;4957156;29;20034;-78
2023/03/03 04:47:37;;;;;;;40.85;17.15;;;;;;;-0.46;100.00;99020.25;4961686;29;20059;-78
2023/03/03 04:50:03;;;;;;;44.45;18.98;;;;;;;-0.43;100.00;99004.06;4968117;28;20031;-78
2023/03/03 04:52:30;;;;;;;47.10;18.23;;;;;;;-0.34;100.00;99011.28;4964308;29;20077;-78
2023/03/03 04:54:56;;;;;;;45.72;18.50;;;;;;;-0.32;100.00;99019.94;4954030;28;20039;-79
2023/03/03 04:57:21;;;;;;;40.30;16.40;;;;;;;-0.18;100.00;99007.28;4958293;29;20094;-76
2023/03/03 04:59:47;;;;;;;45.35;18.17;;;;;;;-0.14;100.00;99016.72;4952429;28;20027;-75
2023/03/03 05:02:15;;;;;;;49.17;18.80;;;;;;;-0.32;100.00;98996.00;4944293;28;20045;-77
2023/03/03 05:04:40;;;;;;;42.08;18.55;;;;;;;-0.19;100.00;99018.91;4945602;28;20035;-75
2023/03/03 05:07:06;;;;;;;41.28;18.17;;;;;;;-0.48;100.00;98980.50;4947945;28;20027;-75
2023/03/03 05:09:31;;;;;;;43.65;20.42;;;;;;;-0.45;100.00;99017.50;4945418;28;20098;-76
2023/03/03 05:11:56;;;;;;;51.45;21.00;;;;;;;-0.59;100.00;99008.97;4951020;28;20043;-75
2023/03/03 05:14:22;;;;;;;51.78;20.58;;;;;;;-0.54;100.00;99022.72;4936617;28;20050;-77
2023/03/03 05:16:47;;;;;;;50.80;19.42;;;;;;;-0.53;100.00;99017.25;4952722;28;20453;-75
2023/03/03 05:19:13;;;;;;;43.80;18.85;;;;;;;-0.31;100.00;99034.94;4957390;28;20037;-77
2023/03/03 05:21:41;;;;;;;41.85;18.48;;;;;;;-0.14;100.00;99030.00;5024546;28;20592;-75
2023/03/03 05:24:11;;;;;;;49.22;18.92;;;;;;;-0.05;100.00;99026.59;4947596;28;20077;-76
2023/03/03 05:27:04;;;;;;;40.53;17.30;;;;;;;0.18;100.00;99046.75;4952254;28;20027;-77
2023/03/03 05:29:35;;;;;;;43.60;17.75;;;;;;;0.10;100.00;99027.91;4986842;28;20027;-79
2023/03/03 05:32:03;;;;;;;48.03;18.42;;;;;;;-0.61;100.00;98920.56;4963003;28;20032;-79
2023/03/03 05:34:28;;;;;;;40.60;18.17;;;;;;;-0.50;100.00;98947.06;4958528;28;20035;-74
2023/03/03 05:36:53;;;;;;;41.97;17.90;;;;;;;-0.53;100.00;98952.66;4962733;28;20076;-78
2023/03/03 05:40:18;;;;;;;45.97;18.33;;;;;;;-0.42;100.00;98995.09;4962920;28;20012;-78
2023/03/03 05:42:44;;;;;;;46.38;18.23;;;;;;;-0.15;100.00;99050.44;4972397;23;20413;-54
2023/03/03 05:45:11;;;;;;;41.38;18.55;;;;;;;-0.20;100.00;99051.81;4965231;28;20031;-62
2023/03/03 05:47:37;;;;;;;46.63;19.45;;;;;;;-0.22;100.00;99058.06;4940369;28;20137;-55
2023/03/03 05:50:03;;;;;;;54.40;21.00;;;;;;;-0.20;100.00;99059.78;4952886;28;20486;-59
2023/03/03 05:52:29;;;;;;;49.30;21.35;;;;;;;-0.10;100.00;99066.03;4969832;28;20438;-53
2023/03/03 05:54:54;;;;;;;45.67;20.17;;;;;;;0.08;100.00;99067.13;4952432;28;20024;-53
2023/03/03 05:57:20;;;;;;;49.28;20.48;;;;;;;0.12;100.00;99062.38;4948829;28;20109;-56
2023/03/03 05:59:46;;;;;;;42.78;18.88;;;;;;;0.12;100.00;99062.38;4952406;28;20031;-54
2023/03/03 06:02:11;;;;;;;45.13;18.52;;;;;;;0.24;100.00;99060.47;4949656;28;20030;-53
2023/03/03 06:04:37;;;;;;;56.40;21.05;;;;;;;0.22;100.00;99068.59;4951136;28;20036;-54
2023/03/03 06:07:02;;;;;;;46.95;20.25;;;;;;;0.19;100.00;99069.69;4936941;28;20031;-53
2023/03/03 06:09:28;;;;;;;45.65;20.50;;;;;;;0.25;100.00;99073.66;4951028;28;20027;-53
2023/03/03 06:11:53;;;;;;;45.53;18.17;;;;;;;0.41;100.00;99070.50;4952515;28;20036;-56
2023/03/03 06:14:22;;;;;;;46.83;19.45;;;;;;;0.47;100.00;99077.13;4958727;28;20032;-53
2023/03/03 06:16:47;;;;;;;45.78;19.55;;;;;;;0.55;100.00;99080.84;4951018;28;20101;-56
2023/03/03 06:19:13;;;;;;;43.42;18.80;;;;;;;0.58;100.00;99080.56;4965312;28;20029;-53
2023/03/03 06:21:39;;;;;;;49.30;18.73;;;;;;;0.55;100.00;99088.81;4972938;28;20371;-53
2023/03/03 06:24:07;;;;;;;44.22;18.23;;;;;;;0.43;100.00;99092.53;4959677;28;20034;-53
2023/03/03 06:26:32;;;;;;;45.63;18.85;;;;;;;0.44;100.00;99083.56;4956814;28;20107;-53
2023/03/03 06:28:58;;;;;;;46.35;19.17;;;;;;;0.37;100.00;99088.56;4959625;28;20193;-53
2023/03/03 06:31:24;;;;;;;45.92;20.00;;;;;;;0.28;100.00;99092.00;4961814;28;20050;-53
2023/03/03 06:33:50;;;;;;;45.20;20.30;;;;;;;0.31;100.00;99094.41;4948308;28;20020;-53
2023/03/03 06:36:16;;;;;;;44.25;19.33;;;;;;;0.43;100.00;99097.84;4978451;28;20154;-54
2023/03/03 06:38:42;;;;;;;42.95;19.48;;;;;;;0.41;100.00;99081.16;4944514;28;20043;-54
2023/03/03 06:41:07;;;;;;;46.42;20.00;;;;;;;0.62;100.00;99103.25;4958863;28;20025;-54
2023/03/03 06:43:33;;;;;;;40.20;19.30;;;;;;;0.76;100.00;99095.88;4945590;28;20023;-54
2023/03/03 06:46:00;;;;;;;45.33;18.55;;;;;;;0.88;100.00;99102.81;4961753;28;20505;-54
2023/03/03 06:48:25;;;;;;;51.35;19.38;;;;;;;0.84;100.00;99101.41;4948686;28;20093;-54
2023/03/03 06:50:51;;;;;;;42.22;18.85;;;;;;;1.14;100.00;99102.34;5002151;28;20032;-54
2023/03/03 06:53:17;;;;;;;45.05;18.88;;;;;;;1.49;100.00;99109.84;4951475;28;20031;-59
2023/03/03 06:55:43;;;;;;;50.85;18.33;;;;;;;1.74;100.00;99103.16;4941673;28;20118;-60
2023/03/03 06:58:13;;;;;;;46.13;19.00;;;;;;;2.02;100.00;99108.59;4939204;28;20043;-61
2023/03/03 07:00:42;;;;;;;43.72;18.10;;;;;;;2.74;100.00;99102.72;4944114;28;20032;-62
2023/03/03 07:03:15;;;;;;;41.03;17.30;;;;;;;3.13;100.00;99113.25;4953395;28;20046;-54
2023/03/03 07:05:41;;;;;;;39.22;17.02;;;;;;;3.27;100.00;99112.75;4952567;28;20027;-57
2023/03/03 07:08:29;;;;;;;37.63;17.25;;;;;;;3.72;100.00;99106.56;4950489;28;20037;-56
2023/03/03 07:10:55;;;;;;;35.67;13.88;;;;;;;3.74;100.00;99119.75;4951297;28;20023;-57
2023/03/03 07:13:23;;;;;;;44.33;18.50;;;;;;;4.04;100.00;99105.16;4941855;28;20031;-57
2023/03/03 07:15:51;;;;;;;40.88;17.40;;;;;;;3.76;100.00;99103.56;4949663;28;20028;-56
2023/03/03 07:18:25;;;;;;;39.17;18.33;;;;;;;4.90;100.00;99103.56;5001774;28;20028;-71
2023/03/03 07:20:51;;;;;;;43.17;17.33;;;;;;;6.54;100.00;99102.06;4952069;28;20114;-57
2023/03/03 07:23:23;;;;;;;39.17;17.30;;;;;;;7.43;100.00;99109.03;4946507;28;20184;-55
2023/03/03 07:25:50;;;;;;;40.40;17.30;;;;;;;8.77;100.00;99106.88;4950320;28;20028;-64
2023/03/03 07:28:27;;;;;;;42.17;18.30;;;;;;;9.61;98.99;99098.44;4990025;28;20122;-64
2023/03/03 07:30:55;;;;;;;36.22;17.85;;;;;;;10.77;81.68;99101.03;4970362;28;20153;-64
2023/03/03 07:33:32;;;;;;;39.15;17.55;;;;;;;10.76;74.15;99108.31;4947535;28;20030;-64
2023/03/03 07:35:59;;;;;;;35.92;17.65;;;;;;;10.94;70.65;99115.94;4957862;28;20034;-64
2023/03/03 07:38:34;;;;;;;41.70;18.30;;;;;;;12.06;66.48;99121.06;4938590;28;20019;-64
2023/03/03 07:41:03;;;;;;;38.97;19.30;;;;;;;11.56;64.19;99123.16;4946917;28;20449;-64
2023/03/03 07:43:42;;;;;;;37.65;20.35;;;;;;;11.33;67.91;99134.31;4945650;28;20028;-64
2023/03/03 07:46:20;;;;;;;39.50;21.42;;;;;;;11.28;67.01;99122.41;4953730;28;20039;-64
2023/03/03 07:48:46;;;;;;;40.80;18.08;;;;;;;12.15;61.71;99129.84;5020115;28;20031;-64
2023/03/03 07:51:21;;;;;;;33.15;18.42;;;;;;;12.58;62.33;99129.50;4994568;28;20027;-64
2023/03/03 07:53:47;;;;;;;36.20;17.63;;;;;;;11.90;63.10;99126.88;4966573;28;20378;-64
2023/03/03 07:56:36;;;;;;;38.75;18.23;;;;;;;13.01;59.83;99122.78;4965970;28;20029;-64
2023/03/03 07:59:17;;;;;;;33.08;18.23;;;;;;;13.65;56.26;99130.16;4978617;28;20035;-64
2023/03/03 08:01:45;;;;;;;34.00;18.02;;;;;;;14.18;55.62;99115.47;4948508;28;20035;-57
2023/03/03 08:04:23;;;;;;;28.33;17.08;;;;;;;14.87;52.91;99122.69;4959239;28;20113;-58
2023/03/03 08:06:59;;;;;;;33.10;16.50;;;;;;;14.71;52.55;99123.25;4963661;28;20063;-58
2023/03/03 08:09:39;;;;;;;29.08;17.10;;;;;;;15.79;50.84;99119.22;4947923;28;20028;-58
2023/03/03 08:12:05;;;;;;;28.77;17.65;;;;;;;15.42;50.41;99119.19;4949858;28;20035;-58
2023/03/03 08:14:33;;;;;;;31.02;16.52;;;;;;;15.60;48.83;99126.53;4954457;28;20413;-58
2023/03/03 08:16:59;;;;;;;29.90;16.63;;;;;;;15.74;48.50;99119.06;4942045;28;20106;-58
2023/03/03 08:19:26;;;;;;;31.33;16.42;;;;;;;16.87;46.96;99114.66;4934378;28;20059;-58
2023/03/03 08:22:02;;;;;;;28.05;17.13;;;;;;;18.24;44.03;99110.50;4944224;28;20032;-57
2023/03/03 08:24:27;;;;;;;29.25;16.40;;;;;;;19.08;42.70;99106.16;4957068;28;20027;-58
2023/03/03 08:26:53;;;;;;;25.60;16.50;;;;;;;16.58;44.76;99117.25;4950229;28;20043;-57
2023/03/03 08:29:18;;;;;;;26.60;16.35;;;;;;;17.98;43.44;99111.09;4985161;28;20037;-57
2023/03/03 08:31:44;;;;;;;27.58;16.00;;;;;;;19.12;42.23;99113.63;4955326;28;20031;-58
2023/03/03 08:34:09;;;;;;;23.15;16.48;;;;;;;20.05;39.73;99110.19;4956466;23;20034;-69
2023/03/03 08:36:35;;;;;;;23.38;16.17;;;;;;;19.40;40.28;99120.06;4963510;28;20045;-68
2023/03/03 08:39:01;;;;;;;24.40;16.52;;;;;;;16.77;42.36;99134.41;4948049;28;20031;-68
2023/03/03 08:41:26;;;;;;;23.10;15.65;;;;;;;17.90;41.63;99124.09;4947548;28;20030;-69
2023/03/03 08:43:52;;;;;;;24.48;15.55;;;;;;;18.96;40.56;99126.25;4950251;28;20122;-68
2023/03/03 08:46:17;;;;;;;23.77;16.15;;;;;;;19.62;40.33;99123.66;4945222;28;20028;-69
2023/03/03 08:48:43;;;;;;;20.02;14.65;;;;;;;19.46;38.99;99121.78;4964515;28;20034;-68
2023/03/03 08:51:09;;;;;;;25.63;15.73;;;;;;;19.93;38.41;99130.38;4950968;28;20544;-68
2023/03/03 08:53:35;;;;;;;25.17;15.57;;;;;;;19.70;38.29;99117.75;4943699;29;20031;-69
2023/03/03 08:56:01;;;;;;;24.85;15.52;;;;;;;18.62;38.78;99117.19;4945649;28;20122;-69
2023/03/03 08:58:27;;;;;;;23.05;14.50;;;;;;;19.62;38.86;99118.19;4947590;28;20035;-68
2023/03/03 09:00:53;;;;;;;27.33;16.05;;;;;;;18.84;39.10;99136.50;4948362;28;20031;-69
2023/03/03 09:03:19;;;;;;;22.63;15.05;;;;;;;20.00;38.17;99129.38;4935090;28;20031;-69
2023/03/03 09:05:44;;;;;;;23.63;15.10;;;;;;;19.00;38.93;99132.09;4944815;28;20027;-69
2023/03/03 09:08:10;;;;;;;25.67;15.77;;;;;;;19.06;38.61;99128.34;4976942;28;20047;-69
2023/03/03 09:10:36;;;;;;;24.60;15.23;;;;;;;20.99;36.64;99134.47;4946456;28;20031;-69
2023/03/03 09:13:17;;;;;;;21.65;14.25;;;;;;;22.74;34.80;99128.63;4948477;28;20061;-69
2023/03/03 09:15:45;;;;;;;19.67;13.40;;;;;;;23.68;33.44;99125.44;4949991;28;20051;-69
2023/03/03 09:18:41;;;;;;;18.90;13.18;;;;;;;24.35;31.64;99131.53;4949427;28;20050;-69
2023/03/03 09:21:32;;;;;;;20.25;13.77;;;;;;;22.69;32.57;99131.38;4943106;28;20042;-69
2023/03/03 09:23:59;;;;;;;22.00;14.80;;;;;;;20.94;33.71;99134.44;4947353;28;20077;-69
2023/03/03 09:26:29;;;;;;;27.58;15.80;;;;;;;21.23;34.34;99132.16;4943953;29;20027;-70
2023/03/03 09:29:14;;;;;;;23.75;14.50;;;;;;;22.06;32.84;99137.00;4950438;29;20106;-70
2023/03/03 09:31:52;;;;;;;20.05;13.98;;;;;;;23.79;32.43;99129.88;4951775;28;20023;-69
2023/03/03 09:34:23;;;;;;;22.35;13.43;;;;;;;25.30;30.48;99124.72;4994576;28;20027;-69
2023/03/03 09:36:53;;;;;;;17.50;12.90;;;;;;;25.48;30.31;99131.44;4936605;29;20051;-69
2023/03/03 09:39:24;;;;;;;17.30;13.25;;;;;;;23.73;30.55;99121.88;4935938;29;20038;-69
2023/03/03 09:42:14;;;;;;;18.85;13.35;;;;;;;23.30;31.07;99133.28;4954611;29;20019;-69
2023/03/03 09:44:48;;;;;;;17.15;13.15;;;;;;;25.64;30.45;99139.59;4948825;28;20459;-69
2023/03/03 09:47:22;;;;;;;20.48;13.68;;;;;;;24.35;30.79;99139.00;4947903;28;20019;-69
2023/03/03 09:50:23;;;;;;;17.77;13.63;;;;;;;24.08;31.87;99140.25;4955758;28;20038;-69
2023/03/03 09:52:54;;;;;;;19.65;12.55;;;;;;;23.98;31.07;99141.13;5012714;28;20032;-69
2023/03/03 09:55:42;;;;;;;17.58;12.52;;;;;;;26.23;29.20;99132.78;4952215;28;20042;-69
2023/03/03 09:58:26;;;;;;;17.98;11.50;;;;;;;26.42;29.11;99130.00;4950329;28;20040;-68
2023/03/03 10:01:23;;;;;;;19.20;12.68;;;;;;;25.10;29.80;99138.75;4948834;28;20038;-69
2023/03/03 10:04:12;;;;;;;19.98;11.65;;;;;;;26.36;28.96;99129.28;4975403;28;20389;-70
2023/03/03 10:07:01;;;;;;;17.33;11.95;;;;;;;25.23;29.27;99135.31;4944419;28;20093;-69
2023/03/03 10:09:34;;;;;;;;;;;;;;;24.75;30.21;99134.31;4957849;28;20030;-69
2023/03/03 10:12:03;;;;;;;15.82;11.23;;;;;;;26.53;28.37;99125.16;4949564;28;19918;-70
2023/03/03 10:14:59;;;;;;;17.25;12.02;;;;;;;28.55;26.91;99128.28;4943314;28;20023;-69
2023/03/03 10:17:28;;;;;;;16.15;11.18;;;;;;;28.96;26.43;99132.88;4941226;28;20038;-69
2023/03/03 10:19:53;;;;;;;16.95;11.73;;;;;;;28.59;26.23;99119.00;4949660;28;20042;-69
2023/03/03 10:22:26;;;;;;;18.08;11.23;;;;;;;29.00;26.66;99126.34;4973510;28;20460;-69
2023/03/03 10:24:57;;;;;;;16.35;12.15;;;;;;;29.28;25.60;99112.28;4945553;28;20019;-70
2023/03/03 10:27:33;;;;;;;17.20;11.93;;;;;;;31.01;24.31;99111.81;4950360;28;20043;-70
2023/03/03 10:30:08;;;;;;;16.40;11.35;;;;;;;29.18;24.66;99120.91;4950428;29;20113;-70
2023/03/03 10:32:44;;;;;;;16.58;11.23;;;;;;;29.61;25.30;99114.72;4951527;28;20448;-71
2023/03/03 10:35:44;;;;;;;16.05;11.82;;;;;;;29.79;24.59;99108.09;4945973;29;20089;-70
2023/03/03 10:38:13;;;;;;;15.50;11.55;;;;;;;29.61;24.79;99109.16;4945431;28;20029;-70
2023/03/03 10:41:09;;;;;;;17.10;12.05;;;;;;;29.72;24.43;99118.91;4980228;28;20023;-70
2023/03/03 10:43:47;;;;;;;18.52;12.15;;;;;;;30.42;24.57;99107.88;4962938;28;20128;-70
2023/03/03 10:46:24;;;;;;;15.57;10.95;;;;;;;30.87;24.40;99110.38;4952805;28;20032;-71
2023/03/03 10:48:56;;;;;;;20.10;13.05;;;;;;;29.93;24.06;99116.34;4941454;28;20039;-70
2023/03/03 10:51:37;;;;;;;19.83;12.18;;;;;;;31.91;24.25;99112.81;4944904;28;20096;-64
2023/03/03 10:54:29;;;;;;;15.93;12.88;;;;;;;26.51;25.76;99127.38;5008620;28;20029;-65
2023/03/03 10:57:22;;;;;;;16.00;11.93;;;;;;;32.58;22.94;99122.31;4977170;28;20031;-65
2023/03/03 10:59:47;;;;;;;18.67;12.40;;;;;;;33.16;22.60;99120.47;4961728;28;20031;-65
2023/03/03 11:02:24;;;;;;;14.90;11.43;;;;;;;34.14;22.02;99124.56;4975616;28;20031;-65
2023/03/03 11:05:23;;;;;;;14.25;11.93;;;;;;;30.21;24.66;99122.47;4974522;28;20282;-65
2023/03/03 11:07:58;;;;;;;17.25;13.15;;;;;;;30.15;24.78;99132.13;4943554;28;20395;-64
2023/03/03 11:10:48;;;;;;;17.13;13.88;;;;;;;27.24;26.67;99134.28;4940870;28;20035;-65
2023/03/03 11:13:24;;;;;;;21.70;15.20;;;;;;;25.59;27.74;99129.38;4947322;28;20028;-64
2023/03/03 11:16:01;;;;;;;21.98;16.02;;;;;;;24.06;29.45;99128.66;4948271;28;20031;-64
2023/03/03 11:18:36;;;;;;;23.92;15.40;;;;;;;23.27;30.13;99124.75;4958426;28;20031;-63
2023/03/03 11:21:14;;;;;;;20.15;14.15;;;;;;;22.56;31.23;99129.16;4952343;28;20050;-65
2023/03/03 11:23:57;;;;;;;;;;;;;;;22.40;31.70;99120.03;4960330;28;20027;-63
2023/03/03 11:26:48;;;;;;;21.88;14.48;;;;;;;24.73;29.33;99117.16;4944727;28;19918;-63
2023/03/03 11:29:25;;;;;;;20.17;14.27;;;;;;;26.64;27.65;99112.78;4953388;28;20025;-63
2023/03/03 11:32:21;;;;;;;20.25;14.13;;;;;;;27.01;27.23;99119.38;4961303;28;20067;-63
2023/03/03 11:34:46;;;;;;;20.17;14.07;;;;;;;26.59;27.33;99112.84;4938986;28;20087;-65
2023/03/03 11:37:39;;;;;;;25.50;15.40;;;;;;;24.69;28.68;99122.47;4953731;28;20118;-64